sensor_id;sensor_type;location;lat;lon;timestamp;P1;durP1;ratioP1;P2;durP2;ratioP2
4630;SDS011;2328;48.170;11.602;2023-09-30T00:01:59;13.20;;;4.40;;
4630;SDS011;2328;48.170;11.602;2023-09-30T00:04:28;13.53;;;4.37;;
4630;SDS011;2328;48.170;11.602;2023-09-30T00:06:59;16.30;;;5.30;;
4630;SDS011;2328;48.170;11.602;2023-09-30T00:09:32;10.97;;;4.17;;
4630;SDS011;2328;48.170;11.602;2023-09-30T00:12:06;12.03;;;4.50;;
4630;SDS011;2328;48.170;11.602;2023-09-30T00:14:38;14.57;;;5.07;;
4630;SDS011;2328;48.170;11.602;2023-09-30T00:17:12;15.90;;;4.67;;
4630;SDS011;2328;48.170;11.602;2023-09-30T00:19:58;14.50;;;5.23;;
4630;SDS011;2328;48.170;11.602;2023-09-30T00:22:29;13.40;;;4.90;;
4630;SDS011;2328;48.170;11.602;2023-09-30T00:25:15;10.10;;;4.63;;
4630;SDS011;2328;48.170;11.602;2023-09-30T00:27:48;14.53;;;4.33;;
4630;SDS011;2328;48.170;11.602;2023-09-30T00:30:19;14.03;;;4.57;;
4630;SDS011;2328;48.170;11.602;2023-09-30T00:32:54;13.70;;;4.53;;
4630;SDS011;2328;48.170;11.602;2023-09-30T00:35:26;22.53;;;5.77;;
4630;SDS011;2328;48.170;11.602;2023-09-30T00:37:56;16.47;;;4.13;;
4630;SDS011;2328;48.170;11.602;2023-09-30T00:40:28;20.40;;;4.77;;
4630;SDS011;2328;48.170;11.602;2023-09-30T00:42:57;14.57;;;4.43;;
4630;SDS011;2328;48.170;11.602;2023-09-30T00:45:28;11.00;;;4.77;;
4630;SDS011;2328;48.170;11.602;2023-09-30T00:47:57;16.23;;;4.87;;
4630;SDS011;2328;48.170;11.602;2023-09-30T00:50:25;11.87;;;4.70;;
4630;SDS011;2328;48.170;11.602;2023-09-30T00:52:56;13.07;;;4.10;;
4630;SDS011;2328;48.170;11.602;2023-09-30T00:55:25;14.77;;;5.17;;
4630;SDS011;2328;48.170;11.602;2023-09-30T00:57:56;15.77;;;5.03;;
4630;SDS011;2328;48.170;11.602;2023-09-30T01:00:25;12.47;;;4.97;;
4630;SDS011;2328;48.170;11.602;2023-09-30T01:02:56;17.90;;;5.57;;
4630;SDS011;2328;48.170;11.602;2023-09-30T01:05:30;13.23;;;4.80;;
4630;SDS011;2328;48.170;11.602;2023-09-30T01:08:00;18.83;;;5.33;;
4630;SDS011;2328;48.170;11.602;2023-09-30T01:10:30;14.67;;;4.50;;
4630;SDS011;2328;48.170;11.602;2023-09-30T01:12:59;16.20;;;4.87;;
4630;SDS011;2328;48.170;11.602;2023-09-30T01:15:28;18.40;;;5.37;;
4630;SDS011;2328;48.170;11.602;2023-09-30T01:17:58;20.47;;;4.20;;
4630;SDS011;2328;48.170;11.602;2023-09-30T01:20:28;15.13;;;4.50;;
4630;SDS011;2328;48.170;11.602;2023-09-30T01:22:59;13.33;;;4.80;;
4630;SDS011;2328;48.170;11.602;2023-09-30T01:25:29;12.63;;;4.10;;
4630;SDS011;2328;48.170;11.602;2023-09-30T01:27:59;18.90;;;6.10;;
4630;SDS011;2328;48.170;11.602;2023-09-30T01:30:33;14.23;;;4.70;;
4630;SDS011;2328;48.170;11.602;2023-09-30T01:33:02;14.20;;;4.43;;
4630;SDS011;2328;48.170;11.602;2023-09-30T01:35:31;16.60;;;6.73;;
4630;SDS011;2328;48.170;11.602;2023-09-30T01:38:01;13.70;;;4.93;;
4630;SDS011;2328;48.170;11.602;2023-09-30T01:40:31;11.83;;;4.77;;
4630;SDS011;2328;48.170;11.602;2023-09-30T01:42:59;14.20;;;4.70;;
4630;SDS011;2328;48.170;11.602;2023-09-30T01:45:28;13.40;;;4.60;;
4630;SDS011;2328;48.170;11.602;2023-09-30T01:47:57;14.20;;;4.70;;
4630;SDS011;2328;48.170;11.602;2023-09-30T01:50:28;8.60;;;3.40;;
4630;SDS011;2328;48.170;11.602;2023-09-30T01:52:57;15.33;;;5.07;;
4630;SDS011;2328;48.170;11.602;2023-09-30T01:55:28;14.43;;;4.13;;
4630;SDS011;2328;48.170;11.602;2023-09-30T01:57:56;10.30;;;3.90;;
4630;SDS011;2328;48.170;11.602;2023-09-30T02:00:25;12.03;;;4.43;;
4630;SDS011;2328;48.170;11.602;2023-09-30T02:02:57;13.97;;;4.57;;
4630;SDS011;2328;48.170;11.602;2023-09-30T02:05:27;17.67;;;5.90;;
4630;SDS011;2328;48.170;11.602;2023-09-30T02:07:55;18.10;;;5.70;;
4630;SDS011;2328;48.170;11.602;2023-09-30T02:10:25;15.50;;;5.90;;
4630;SDS011;2328;48.170;11.602;2023-09-30T02:12:55;17.37;;;5.50;;
4630;SDS011;2328;48.170;11.602;2023-09-30T02:15:25;13.90;;;4.90;;
4630;SDS011;2328;48.170;11.602;2023-09-30T02:17:55;19.03;;;6.27;;
4630;SDS011;2328;48.170;11.602;2023-09-30T02:20:23;14.63;;;5.23;;
4630;SDS011;2328;48.170;11.602;2023-09-30T02:22:57;19.57;;;5.43;;
4630;SDS011;2328;48.170;11.602;2023-09-30T02:25:29;14.53;;;5.60;;
4630;SDS011;2328;48.170;11.602;2023-09-30T02:28:00;13.47;;;5.07;;
4630;SDS011;2328;48.170;11.602;2023-09-30T02:30:28;11.10;;;4.97;;
4630;SDS011;2328;48.170;11.602;2023-09-30T02:32:57;22.37;;;6.13;;
4630;SDS011;2328;48.170;11.602;2023-09-30T02:35:27;16.40;;;6.03;;
4630;SDS011;2328;48.170;11.602;2023-09-30T02:37:56;13.67;;;4.90;;
4630;SDS011;2328;48.170;11.602;2023-09-30T02:40:25;15.23;;;4.70;;
4630;SDS011;2328;48.170;11.602;2023-09-30T02:42:54;19.03;;;6.00;;
4630;SDS011;2328;48.170;11.602;2023-09-30T02:45:24;14.43;;;5.53;;
4630;SDS011;2328;48.170;11.602;2023-09-30T02:47:58;19.07;;;5.77;;
4630;SDS011;2328;48.170;11.602;2023-09-30T02:50:28;19.13;;;6.00;;
4630;SDS011;2328;48.170;11.602;2023-09-30T02:52:57;16.63;;;6.30;;
4630;SDS011;2328;48.170;11.602;2023-09-30T02:55:25;18.80;;;5.90;;
4630;SDS011;2328;48.170;11.602;2023-09-30T02:57:57;15.80;;;5.07;;
4630;SDS011;2328;48.170;11.602;2023-09-30T03:00:29;19.10;;;5.80;;
4630;SDS011;2328;48.170;11.602;2023-09-30T03:03:01;18.17;;;5.20;;
4630;SDS011;2328;48.170;11.602;2023-09-30T03:05:30;27.97;;;7.30;;
4630;SDS011;2328;48.170;11.602;2023-09-30T03:08:00;16.10;;;5.13;;
4630;SDS011;2328;48.170;11.602;2023-09-30T03:10:29;10.60;;;5.37;;
4630;SDS011;2328;48.170;11.602;2023-09-30T03:12:58;26.93;;;7.00;;
4630;SDS011;2328;48.170;11.602;2023-09-30T03:15:31;17.37;;;5.10;;
4630;SDS011;2328;48.170;11.602;2023-09-30T03:18:02;13.27;;;5.03;;
4630;SDS011;2328;48.170;11.602;2023-09-30T03:20:34;13.60;;;4.17;;
4630;SDS011;2328;48.170;11.602;2023-09-30T03:23:11;17.73;;;7.00;;
4630;SDS011;2328;48.170;11.602;2023-09-30T03:25:41;19.83;;;6.40;;
4630;SDS011;2328;48.170;11.602;2023-09-30T03:28:09;17.17;;;5.50;;
4630;SDS011;2328;48.170;11.602;2023-09-30T03:30:45;21.70;;;5.97;;
4630;SDS011;2328;48.170;11.602;2023-09-30T03:33:17;15.53;;;4.83;;
4630;SDS011;2328;48.170;11.602;2023-09-30T03:35:46;18.97;;;5.50;;
4630;SDS011;2328;48.170;11.602;2023-09-30T03:38:15;18.33;;;5.67;;
4630;SDS011;2328;48.170;11.602;2023-09-30T03:40:46;17.57;;;5.93;;
4630;SDS011;2328;48.170;11.602;2023-09-30T03:43:16;12.77;;;4.90;;
4630;SDS011;2328;48.170;11.602;2023-09-30T03:45:47;15.37;;;4.83;;
4630;SDS011;2328;48.170;11.602;2023-09-30T03:48:16;14.77;;;4.77;;
4630;SDS011;2328;48.170;11.602;2023-09-30T03:50:46;16.90;;;5.63;;
4630;SDS011;2328;48.170;11.602;2023-09-30T03:53:15;17.30;;;4.70;;
4630;SDS011;2328;48.170;11.602;2023-09-30T03:55:44;16.50;;;5.43;;
4630;SDS011;2328;48.170;11.602;2023-09-30T03:58:14;14.10;;;4.77;;
4630;SDS011;2328;48.170;11.602;2023-09-30T04:00:44;20.20;;;6.03;;
4630;SDS011;2328;48.170;11.602;2023-09-30T04:03:19;15.30;;;5.20;;
4630;SDS011;2328;48.170;11.602;2023-09-30T04:05:48;12.27;;;4.80;;
4630;SDS011;2328;48.170;11.602;2023-09-30T04:08:17;15.17;;;4.27;;
4630;SDS011;2328;48.170;11.602;2023-09-30T04:10:47;12.73;;;4.20;;
4630;SDS011;2328;48.170;11.602;2023-09-30T04:13:19;15.83;;;4.70;;
4630;SDS011;2328;48.170;11.602;2023-09-30T04:15:56;8.87;;;3.63;;
4630;SDS011;2328;48.170;11.602;2023-09-30T04:18:28;16.90;;;4.87;;
4630;SDS011;2328;48.170;11.602;2023-09-30T04:21:00;20.87;;;5.10;;
4630;SDS011;2328;48.170;11.602;2023-09-30T04:23:38;23.27;;;5.47;;
4630;SDS011;2328;48.170;11.602;2023-09-30T04:26:10;12.30;;;4.90;;
4630;SDS011;2328;48.170;11.602;2023-09-30T04:28:41;12.13;;;4.10;;
4630;SDS011;2328;48.170;11.602;2023-09-30T04:31:10;15.37;;;4.70;;
4630;SDS011;2328;48.170;11.602;2023-09-30T04:33:43;15.10;;;5.20;;
4630;SDS011;2328;48.170;11.602;2023-09-30T04:36:13;12.00;;;4.83;;
4630;SDS011;2328;48.170;11.602;2023-09-30T04:38:45;18.77;;;4.70;;
4630;SDS011;2328;48.170;11.602;2023-09-30T04:41:13;15.17;;;4.70;;
4630;SDS011;2328;48.170;11.602;2023-09-30T04:43:45;18.07;;;4.20;;
4630;SDS011;2328;48.170;11.602;2023-09-30T04:46:16;23.33;;;6.20;;
4630;SDS011;2328;48.170;11.602;2023-09-30T04:48:51;15.20;;;5.10;;
4630;SDS011;2328;48.170;11.602;2023-09-30T04:51:19;17.33;;;5.87;;
4630;SDS011;2328;48.170;11.602;2023-09-30T04:53:50;18.43;;;5.37;;
4630;SDS011;2328;48.170;11.602;2023-09-30T04:56:26;18.27;;;6.07;;
4630;SDS011;2328;48.170;11.602;2023-09-30T04:58:57;19.77;;;4.77;;
4630;SDS011;2328;48.170;11.602;2023-09-30T05:01:30;9.80;;;4.20;;
4630;SDS011;2328;48.170;11.602;2023-09-30T05:04:01;13.97;;;5.40;;
4630;SDS011;2328;48.170;11.602;2023-09-30T05:06:30;16.27;;;4.57;;
4630;SDS011;2328;48.170;11.602;2023-09-30T05:09:00;9.50;;;4.23;;
4630;SDS011;2328;48.170;11.602;2023-09-30T05:11:29;20.73;;;5.27;;
4630;SDS011;2328;48.170;11.602;2023-09-30T05:14:01;18.03;;;4.57;;
4630;SDS011;2328;48.170;11.602;2023-09-30T05:16:34;8.60;;;3.63;;
4630;SDS011;2328;48.170;11.602;2023-09-30T05:19:05;15.50;;;5.70;;
4630;SDS011;2328;48.170;11.602;2023-09-30T05:21:36;13.50;;;4.63;;
4630;SDS011;2328;48.170;11.602;2023-09-30T05:24:09;16.60;;;5.07;;
4630;SDS011;2328;48.170;11.602;2023-09-30T05:26:44;12.33;;;3.80;;
4630;SDS011;2328;48.170;11.602;2023-09-30T05:29:18;12.33;;;3.87;;
4630;SDS011;2328;48.170;11.602;2023-09-30T05:31:47;16.53;;;4.60;;
4630;SDS011;2328;48.170;11.602;2023-09-30T05:34:18;13.97;;;4.30;;
4630;SDS011;2328;48.170;11.602;2023-09-30T05:37:01;13.90;;;4.50;;
4630;SDS011;2328;48.170;11.602;2023-09-30T05:39:33;9.50;;;3.87;;
4630;SDS011;2328;48.170;11.602;2023-09-30T05:42:02;11.33;;;3.73;;
4630;SDS011;2328;48.170;11.602;2023-09-30T05:44:32;14.10;;;4.33;;
4630;SDS011;2328;48.170;11.602;2023-09-30T05:47:06;27.60;;;4.70;;
4630;SDS011;2328;48.170;11.602;2023-09-30T05:49:41;12.00;;;3.60;;
4630;SDS011;2328;48.170;11.602;2023-09-30T05:52:15;11.60;;;3.47;;
4630;SDS011;2328;48.170;11.602;2023-09-30T05:54:45;15.40;;;4.73;;
4630;SDS011;2328;48.170;11.602;2023-09-30T05:57:16;12.43;;;4.50;;
4630;SDS011;2328;48.170;11.602;2023-09-30T05:59:49;10.47;;;4.77;;
4630;SDS011;2328;48.170;11.602;2023-09-30T06:02:18;17.10;;;4.80;;
4630;SDS011;2328;48.170;11.602;2023-09-30T06:04:51;11.50;;;4.10;;
4630;SDS011;2328;48.170;11.602;2023-09-30T06:07:21;9.93;;;3.87;;
4630;SDS011;2328;48.170;11.602;2023-09-30T06:09:53;10.77;;;4.10;;
4630;SDS011;2328;48.170;11.602;2023-09-30T06:12:21;8.43;;;3.80;;
4630;SDS011;2328;48.170;11.602;2023-09-30T06:14:51;13.30;;;4.33;;
4630;SDS011;2328;48.170;11.602;2023-09-30T06:17:25;14.37;;;4.33;;
4630;SDS011;2328;48.170;11.602;2023-09-30T06:19:55;11.50;;;3.73;;
4630;SDS011;2328;48.170;11.602;2023-09-30T06:22:33;8.90;;;3.43;;
4630;SDS011;2328;48.170;11.602;2023-09-30T06:25:03;12.87;;;3.70;;
4630;SDS011;2328;48.170;11.602;2023-09-30T06:27:32;11.67;;;4.13;;
4630;SDS011;2328;48.170;11.602;2023-09-30T06:30:02;13.07;;;4.13;;
4630;SDS011;2328;48.170;11.602;2023-09-30T06:32:31;9.23;;;3.40;;
4630;SDS011;2328;48.170;11.602;2023-09-30T06:35:03;10.47;;;3.70;;
4630;SDS011;2328;48.170;11.602;2023-09-30T06:37:32;15.83;;;3.37;;
4630;SDS011;2328;48.170;11.602;2023-09-30T06:40:01;14.30;;;4.43;;
4630;SDS011;2328;48.170;11.602;2023-09-30T06:42:31;10.97;;;4.10;;
4630;SDS011;2328;48.170;11.602;2023-09-30T06:45:01;21.80;;;4.60;;
4630;SDS011;2328;48.170;11.602;2023-09-30T06:47:32;10.10;;;3.27;;
4630;SDS011;2328;48.170;11.602;2023-09-30T06:50:00;8.40;;;3.77;;
4630;SDS011;2328;48.170;11.602;2023-09-30T06:52:35;11.50;;;3.57;;
4630;SDS011;2328;48.170;11.602;2023-09-30T06:55:04;9.23;;;3.53;;
4630;SDS011;2328;48.170;11.602;2023-09-30T06:57:33;12.47;;;3.43;;
4630;SDS011;2328;48.170;11.602;2023-09-30T07:00:04;5.80;;;2.97;;
4630;SDS011;2328;48.170;11.602;2023-09-30T07:02:35;7.90;;;2.67;;
4630;SDS011;2328;48.170;11.602;2023-09-30T07:05:05;9.63;;;2.80;;
4630;SDS011;2328;48.170;11.602;2023-09-30T07:07:35;6.57;;;2.57;;
4630;SDS011;2328;48.170;11.602;2023-09-30T07:10:04;10.50;;;2.90;;
4630;SDS011;2328;48.170;11.602;2023-09-30T07:12:33;8.30;;;2.63;;
4630;SDS011;2328;48.170;11.602;2023-09-30T07:15:03;5.43;;;2.07;;
4630;SDS011;2328;48.170;11.602;2023-09-30T07:17:34;5.50;;;2.30;;
4630;SDS011;2328;48.170;11.602;2023-09-30T07:20:04;3.63;;;2.00;;
4630;SDS011;2328;48.170;11.602;2023-09-30T07:22:33;4.80;;;2.13;;
4630;SDS011;2328;48.170;11.602;2023-09-30T07:25:11;4.87;;;2.73;;
4630;SDS011;2328;48.170;11.602;2023-09-30T07:27:40;6.40;;;2.33;;
4630;SDS011;2328;48.170;11.602;2023-09-30T07:30:10;5.03;;;1.83;;
4630;SDS011;2328;48.170;11.602;2023-09-30T07:32:43;2.70;;;1.77;;
4630;SDS011;2328;48.170;11.602;2023-09-30T07:35:12;5.30;;;2.50;;
4630;SDS011;2328;48.170;11.602;2023-09-30T07:37:42;3.90;;;2.07;;
4630;SDS011;2328;48.170;11.602;2023-09-30T07:40:12;5.77;;;1.53;;
4630;SDS011;2328;48.170;11.602;2023-09-30T07:42:41;7.87;;;2.13;;
4630;SDS011;2328;48.170;11.602;2023-09-30T07:45:10;9.83;;;2.30;;
4630;SDS011;2328;48.170;11.602;2023-09-30T07:47:44;8.83;;;2.33;;
4630;SDS011;2328;48.170;11.602;2023-09-30T07:50:13;7.50;;;2.30;;
4630;SDS011;2328;48.170;11.602;2023-09-30T07:52:42;10.90;;;2.37;;
4630;SDS011;2328;48.170;11.602;2023-09-30T07:55:12;5.37;;;1.90;;
4630;SDS011;2328;48.170;11.602;2023-09-30T07:57:41;3.50;;;1.73;;
4630;SDS011;2328;48.170;11.602;2023-09-30T08:00:11;4.30;;;1.50;;
4630;SDS011;2328;48.170;11.602;2023-09-30T08:02:42;4.03;;;2.10;;
4630;SDS011;2328;48.170;11.602;2023-09-30T08:05:14;8.83;;;3.10;;
4630;SDS011;2328;48.170;11.602;2023-09-30T08:07:43;6.87;;;2.60;;
4630;SDS011;2328;48.170;11.602;2023-09-30T08:10:14;9.93;;;2.73;;
4630;SDS011;2328;48.170;11.602;2023-09-30T08:12:43;10.70;;;2.53;;
4630;SDS011;2328;48.170;11.602;2023-09-30T08:15:15;7.00;;;2.63;;
4630;SDS011;2328;48.170;11.602;2023-09-30T08:17:44;6.60;;;1.93;;
4630;SDS011;2328;48.170;11.602;2023-09-30T08:20:13;6.17;;;2.87;;
4630;SDS011;2328;48.170;11.602;2023-09-30T08:22:42;7.77;;;3.00;;
4630;SDS011;2328;48.170;11.602;2023-09-30T08:25:11;8.77;;;2.67;;
4630;SDS011;2328;48.170;11.602;2023-09-30T08:27:41;4.27;;;1.73;;
4630;SDS011;2328;48.170;11.602;2023-09-30T08:30:12;9.90;;;2.87;;
4630;SDS011;2328;48.170;11.602;2023-09-30T08:32:42;5.00;;;2.10;;
4630;SDS011;2328;48.170;11.602;2023-09-30T08:35:13;5.37;;;2.23;;
4630;SDS011;2328;48.170;11.602;2023-09-30T08:37:43;10.37;;;2.70;;
4630;SDS011;2328;48.170;11.602;2023-09-30T08:40:12;10.77;;;2.90;;
4630;SDS011;2328;48.170;11.602;2023-09-30T08:42:45;7.40;;;2.90;;
4630;SDS011;2328;48.170;11.602;2023-09-30T08:45:19;6.40;;;2.57;;
4630;SDS011;2328;48.170;11.602;2023-09-30T08:47:47;5.67;;;3.00;;
4630;SDS011;2328;48.170;11.602;2023-09-30T08:50:24;7.30;;;3.03;;
4630;SDS011;2328;48.170;11.602;2023-09-30T08:52:53;6.93;;;2.50;;
4630;SDS011;2328;48.170;11.602;2023-09-30T08:55:22;6.10;;;2.13;;
4630;SDS011;2328;48.170;11.602;2023-09-30T08:57:53;7.10;;;2.07;;
4630;SDS011;2328;48.170;11.602;2023-09-30T09:00:26;5.97;;;3.00;;
4630;SDS011;2328;48.170;11.602;2023-09-30T09:02:57;10.00;;;3.17;;
4630;SDS011;2328;48.170;11.602;2023-09-30T09:05:25;8.83;;;3.00;;
4630;SDS011;2328;48.170;11.602;2023-09-30T09:07:54;12.23;;;3.10;;
4630;SDS011;2328;48.170;11.602;2023-09-30T09:10:22;7.23;;;2.50;;
4630;SDS011;2328;48.170;11.602;2023-09-30T09:12:56;9.13;;;2.90;;
4630;SDS011;2328;48.170;11.602;2023-09-30T09:15:30;6.93;;;2.53;;
4630;SDS011;2328;48.170;11.602;2023-09-30T09:17:59;7.03;;;2.37;;
4630;SDS011;2328;48.170;11.602;2023-09-30T09:20:28;4.20;;;2.17;;
4630;SDS011;2328;48.170;11.602;2023-09-30T09:23:01;5.97;;;2.20;;
4630;SDS011;2328;48.170;11.602;2023-09-30T09:25:31;9.83;;;2.30;;
4630;SDS011;2328;48.170;11.602;2023-09-30T09:28:07;5.20;;;2.27;;
4630;SDS011;2328;48.170;11.602;2023-09-30T09:30:37;5.33;;;2.27;;
4630;SDS011;2328;48.170;11.602;2023-09-30T09:33:07;8.53;;;2.57;;
4630;SDS011;2328;48.170;11.602;2023-09-30T09:35:36;5.33;;;2.30;;
4630;SDS011;2328;48.170;11.602;2023-09-30T09:38:05;4.23;;;1.67;;
4630;SDS011;2328;48.170;11.602;2023-09-30T09:40:34;8.40;;;3.07;;
4630;SDS011;2328;48.170;11.602;2023-09-30T09:43:04;5.90;;;2.30;;
4630;SDS011;2328;48.170;11.602;2023-09-30T09:45:36;5.00;;;2.47;;
4630;SDS011;2328;48.170;11.602;2023-09-30T09:48:05;4.57;;;1.63;;
4630;SDS011;2328;48.170;11.602;2023-09-30T09:50:40;7.63;;;2.80;;
4630;SDS011;2328;48.170;11.602;2023-09-30T09:53:13;4.20;;;1.90;;
4630;SDS011;2328;48.170;11.602;2023-09-30T09:55:42;7.77;;;2.13;;
4630;SDS011;2328;48.170;11.602;2023-09-30T09:58:11;2.73;;;2.00;;
4630;SDS011;2328;48.170;11.602;2023-09-30T10:00:42;3.10;;;1.43;;
4630;SDS011;2328;48.170;11.602;2023-09-30T10:03:18;5.17;;;1.87;;
4630;SDS011;2328;48.170;11.602;2023-09-30T10:05:51;3.10;;;1.83;;
4630;SDS011;2328;48.170;11.602;2023-09-30T10:08:21;9.23;;;2.30;;
4630;SDS011;2328;48.170;11.602;2023-09-30T10:10:51;2.80;;;1.80;;
4630;SDS011;2328;48.170;11.602;2023-09-30T10:16:10;3.80;;;1.60;;
4630;SDS011;2328;48.170;11.602;2023-09-30T10:19:08;4.90;;;1.80;;
4630;SDS011;2328;48.170;11.602;2023-09-30T10:21:36;4.87;;;1.53;;
4630;SDS011;2328;48.170;11.602;2023-09-30T10:24:28;4.27;;;2.00;;
4630;SDS011;2328;48.170;11.602;2023-09-30T10:29:40;5.00;;;2.00;;
4630;SDS011;2328;48.170;11.602;2023-09-30T10:32:10;2.97;;;1.30;;
4630;SDS011;2328;48.170;11.602;2023-09-30T10:34:39;3.50;;;1.60;;
4630;SDS011;2328;48.170;11.602;2023-09-30T10:37:22;1.93;;;1.23;;
4630;SDS011;2328;48.170;11.602;2023-09-30T10:39:56;3.17;;;1.83;;
4630;SDS011;2328;48.170;11.602;2023-09-30T10:45:41;3.43;;;1.43;;
4630;SDS011;2328;48.170;11.602;2023-09-30T10:51:00;3.10;;;1.10;;
4630;SDS011;2328;48.170;11.602;2023-09-30T10:53:30;4.20;;;1.97;;
4630;SDS011;2328;48.170;11.602;2023-09-30T10:56:00;6.80;;;2.30;;
4630;SDS011;2328;48.170;11.602;2023-09-30T10:58:40;4.20;;;1.83;;
4630;SDS011;2328;48.170;11.602;2023-09-30T11:01:09;4.03;;;1.83;;
4630;SDS011;2328;48.170;11.602;2023-09-30T11:03:39;2.80;;;2.00;;
4630;SDS011;2328;48.170;11.602;2023-09-30T11:06:12;6.53;;;1.33;;
4630;SDS011;2328;48.170;11.602;2023-09-30T11:08:45;2.90;;;1.53;;
4630;SDS011;2328;48.170;11.602;2023-09-30T11:11:14;4.50;;;1.53;;
4630;SDS011;2328;48.170;11.602;2023-09-30T11:13:48;4.03;;;1.30;;
4630;SDS011;2328;48.170;11.602;2023-09-30T11:16:24;3.20;;;1.30;;
4630;SDS011;2328;48.170;11.602;2023-09-30T11:18:55;2.77;;;1.30;;
4630;SDS011;2328;48.170;11.602;2023-09-30T11:21:28;3.47;;;1.30;;
4630;SDS011;2328;48.170;11.602;2023-09-30T11:23:58;11.03;;;2.10;;
4630;SDS011;2328;48.170;11.602;2023-09-30T11:26:35;3.70;;;1.97;;
4630;SDS011;2328;48.170;11.602;2023-09-30T11:29:33;8.73;;;2.27;;
4630;SDS011;2328;48.170;11.602;2023-09-30T11:32:02;5.10;;;2.00;;
4630;SDS011;2328;48.170;11.602;2023-09-30T11:34:42;4.17;;;1.70;;
4630;SDS011;2328;48.170;11.602;2023-09-30T11:37:30;5.03;;;2.10;;
4630;SDS011;2328;48.170;11.602;2023-09-30T11:40:11;5.47;;;2.30;;
4630;SDS011;2328;48.170;11.602;2023-09-30T11:42:40;4.77;;;2.10;;
4630;SDS011;2328;48.170;11.602;2023-09-30T11:45:20;4.00;;;2.00;;
4630;SDS011;2328;48.170;11.602;2023-09-30T11:47:56;3.30;;;1.33;;
4630;SDS011;2328;48.170;11.602;2023-09-30T11:50:25;7.20;;;2.90;;
4630;SDS011;2328;48.170;11.602;2023-09-30T11:52:57;6.47;;;2.60;;
4630;SDS011;2328;48.170;11.602;2023-09-30T11:55:26;4.43;;;2.30;;
4630;SDS011;2328;48.170;11.602;2023-09-30T11:57:54;3.03;;;2.15;;
4630;SDS011;2328;48.170;11.602;2023-09-30T12:00:22;10.20;;;2.17;;
4630;SDS011;2328;48.170;11.602;2023-09-30T12:02:51;14.50;;;2.67;;
4630;SDS011;2328;48.170;11.602;2023-09-30T12:05:20;5.00;;;2.30;;
4630;SDS011;2328;48.170;11.602;2023-09-30T12:07:49;6.80;;;2.40;;
4630;SDS011;2328;48.170;11.602;2023-09-30T12:10:18;7.80;;;2.80;;
4630;SDS011;2328;48.170;11.602;2023-09-30T12:12:51;4.60;;;1.73;;
4630;SDS011;2328;48.170;11.602;2023-09-30T12:15:19;4.50;;;2.40;;
4630;SDS011;2328;48.170;11.602;2023-09-30T12:17:48;10.37;;;3.20;;
4630;SDS011;2328;48.170;11.602;2023-09-30T12:20:17;7.80;;;2.80;;
4630;SDS011;2328;48.170;11.602;2023-09-30T12:22:47;5.80;;;2.10;;
4630;SDS011;2328;48.170;11.602;2023-09-30T12:25:15;6.60;;;3.27;;
4630;SDS011;2328;48.170;11.602;2023-09-30T12:27:51;9.93;;;3.30;;
4630;SDS011;2328;48.170;11.602;2023-09-30T12:30:21;11.90;;;3.27;;
4630;SDS011;2328;48.170;11.602;2023-09-30T12:32:50;8.00;;;3.27;;
4630;SDS011;2328;48.170;11.602;2023-09-30T12:35:21;6.13;;;2.80;;
4630;SDS011;2328;48.170;11.602;2023-09-30T12:37:50;5.60;;;2.33;;
4630;SDS011;2328;48.170;11.602;2023-09-30T12:40:18;5.97;;;3.20;;
4630;SDS011;2328;48.170;11.602;2023-09-30T12:42:47;5.70;;;2.33;;
4630;SDS011;2328;48.170;11.602;2023-09-30T12:45:17;13.87;;;3.30;;
4630;SDS011;2328;48.170;11.602;2023-09-30T12:47:45;6.73;;;3.40;;
4630;SDS011;2328;48.170;11.602;2023-09-30T12:50:14;9.37;;;3.07;;
4630;SDS011;2328;48.170;11.602;2023-09-30T12:52:43;11.90;;;3.67;;
4630;SDS011;2328;48.170;11.602;2023-09-30T12:55:12;7.07;;;2.87;;
4630;SDS011;2328;48.170;11.602;2023-09-30T12:57:40;11.90;;;3.10;;
4630;SDS011;2328;48.170;11.602;2023-09-30T13:00:09;5.30;;;2.20;;
4630;SDS011;2328;48.170;11.602;2023-09-30T13:02:39;8.00;;;2.27;;
4630;SDS011;2328;48.170;11.602;2023-09-30T13:05:08;8.80;;;3.10;;
4630;SDS011;2328;48.170;11.602;2023-09-30T13:07:37;8.43;;;3.13;;
4630;SDS011;2328;48.170;11.602;2023-09-30T13:10:06;7.63;;;2.57;;
4630;SDS011;2328;48.170;11.602;2023-09-30T13:12:34;13.07;;;2.90;;
4630;SDS011;2328;48.170;11.602;2023-09-30T13:15:03;10.40;;;2.80;;
4630;SDS011;2328;48.170;11.602;2023-09-30T13:17:32;10.80;;;2.70;;
4630;SDS011;2328;48.170;11.602;2023-09-30T13:20:02;4.90;;;2.40;;
4630;SDS011;2328;48.170;11.602;2023-09-30T13:22:31;3.43;;;2.10;;
4630;SDS011;2328;48.170;11.602;2023-09-30T13:25:00;7.90;;;2.33;;
4630;SDS011;2328;48.170;11.602;2023-09-30T13:27:29;7.07;;;2.73;;
4630;SDS011;2328;48.170;11.602;2023-09-30T13:29:57;5.80;;;2.60;;
4630;SDS011;2328;48.170;11.602;2023-09-30T13:32:26;7.43;;;2.67;;
4630;SDS011;2328;48.170;11.602;2023-09-30T13:34:54;7.30;;;2.73;;
4630;SDS011;2328;48.170;11.602;2023-09-30T13:37:25;10.13;;;2.80;;
4630;SDS011;2328;48.170;11.602;2023-09-30T13:39:59;5.60;;;2.90;;
4630;SDS011;2328;48.170;11.602;2023-09-30T13:42:28;7.67;;;2.73;;
4630;SDS011;2328;48.170;11.602;2023-09-30T13:44:57;9.37;;;2.47;;
4630;SDS011;2328;48.170;11.602;2023-09-30T13:47:25;5.60;;;2.97;;
4630;SDS011;2328;48.170;11.602;2023-09-30T13:49:55;7.90;;;2.90;;
4630;SDS011;2328;48.170;11.602;2023-09-30T13:52:24;7.17;;;2.80;;
4630;SDS011;2328;48.170;11.602;2023-09-30T13:54:55;8.20;;;2.43;;
4630;SDS011;2328;48.170;11.602;2023-09-30T13:57:23;6.17;;;2.33;;
4630;SDS011;2328;48.170;11.602;2023-09-30T13:59:53;8.63;;;2.57;;
4630;SDS011;2328;48.170;11.602;2023-09-30T14:02:22;5.87;;;2.47;;
4630;SDS011;2328;48.170;11.602;2023-09-30T14:04:50;7.50;;;2.90;;
4630;SDS011;2328;48.170;11.602;2023-09-30T14:07:21;6.47;;;2.77;;
4630;SDS011;2328;48.170;11.602;2023-09-30T14:09:50;9.67;;;2.83;;
4630;SDS011;2328;48.170;11.602;2023-09-30T14:12:20;5.87;;;2.70;;
4630;SDS011;2328;48.170;11.602;2023-09-30T14:14:49;6.20;;;2.57;;
4630;SDS011;2328;48.170;11.602;2023-09-30T14:17:17;6.30;;;2.83;;
4630;SDS011;2328;48.170;11.602;2023-09-30T14:19:46;4.87;;;2.10;;
4630;SDS011;2328;48.170;11.602;2023-09-30T14:22:16;6.53;;;2.40;;
4630;SDS011;2328;48.170;11.602;2023-09-30T14:24:44;9.63;;;2.87;;
4630;SDS011;2328;48.170;11.602;2023-09-30T14:27:12;3.90;;;2.43;;
4630;SDS011;2328;48.170;11.602;2023-09-30T14:29:43;6.30;;;2.30;;
4630;SDS011;2328;48.170;11.602;2023-09-30T14:32:12;7.63;;;2.00;;
4630;SDS011;2328;48.170;11.602;2023-09-30T14:34:40;4.10;;;2.47;;
4630;SDS011;2328;48.170;11.602;2023-09-30T14:37:09;6.50;;;2.60;;
4630;SDS011;2328;48.170;11.602;2023-09-30T14:39:37;5.33;;;2.17;;
4630;SDS011;2328;48.170;11.602;2023-09-30T14:42:06;9.67;;;2.50;;
4630;SDS011;2328;48.170;11.602;2023-09-30T14:44:34;7.33;;;2.30;;
4630;SDS011;2328;48.170;11.602;2023-09-30T14:47:04;6.63;;;2.43;;
4630;SDS011;2328;48.170;11.602;2023-09-30T14:49:33;9.77;;;3.40;;
4630;SDS011;2328;48.170;11.602;2023-09-30T14:52:01;4.57;;;2.30;;
4630;SDS011;2328;48.170;11.602;2023-09-30T14:54:31;6.13;;;2.50;;
4630;SDS011;2328;48.170;11.602;2023-09-30T14:57:00;6.10;;;2.43;;
4630;SDS011;2328;48.170;11.602;2023-09-30T14:59:28;7.90;;;2.70;;
4630;SDS011;2328;48.170;11.602;2023-09-30T15:02:00;5.47;;;2.17;;
4630;SDS011;2328;48.170;11.602;2023-09-30T15:04:33;4.77;;;2.37;;
4630;SDS011;2328;48.170;11.602;2023-09-30T15:07:03;3.90;;;2.10;;
4630;SDS011;2328;48.170;11.602;2023-09-30T15:09:32;8.23;;;2.60;;
4630;SDS011;2328;48.170;11.602;2023-09-30T15:12:02;9.67;;;2.93;;
4630;SDS011;2328;48.170;11.602;2023-09-30T15:14:31;6.60;;;2.50;;
4630;SDS011;2328;48.170;11.602;2023-09-30T15:17:00;5.20;;;2.70;;
4630;SDS011;2328;48.170;11.602;2023-09-30T15:19:29;6.90;;;3.70;;
4630;SDS011;2328;48.170;11.602;2023-09-30T15:22:29;2.37;;;1.80;;
4630;SDS011;2328;48.170;11.602;2023-09-30T15:25:00;7.53;;;2.53;;
4630;SDS011;2328;48.170;11.602;2023-09-30T15:27:31;9.50;;;2.30;;
4630;SDS011;2328;48.170;11.602;2023-09-30T15:30:15;3.90;;;2.20;;